sensor_id;sensor_type;location;lat;lon;timestamp;P1;durP1;ratioP1;P2;durP2;ratioP2
21554;SDS011;10938;44.794;-0.676;2023-05-16T00:01:29;5.88;;;3.08;;
21554;SDS011;10938;44.794;-0.676;2023-05-16T00:03:54;5.80;;;3.17;;
21554;SDS011;10938;44.794;-0.676;2023-05-16T00:06:20;5.85;;;3.20;;
21554;SDS011;10938;44.794;-0.676;2023-05-16T00:08:46;6.25;;;3.33;;
21554;SDS011;10938;44.794;-0.676;2023-05-16T00:11:11;6.47;;;3.75;;
21554;SDS011;10938;44.794;-0.676;2023-05-16T00:13:37;5.68;;;3.70;;
21554;SDS011;10938;44.794;-0.676;2023-05-16T00:16:03;5.18;;;3.63;;
21554;SDS011;10938;44.794;-0.676;2023-05-16T00:18:30;4.85;;;3.78;;
21554;SDS011;10938;44.794;-0.676;2023-05-16T00:20:56;6.20;;;3.45;;
21554;SDS011;10938;44.794;-0.676;2023-05-16T00:23:21;9.23;;;4.85;;
21554;SDS011;10938;44.794;-0.676;2023-05-16T00:25:47;7.07;;;4.47;;
21554;SDS011;10938;44.794;-0.676;2023-05-16T00:28:12;6.55;;;4.25;;
21554;SDS011;10938;44.794;-0.676;2023-05-16T00:30:38;6.97;;;3.95;;
21554;SDS011;10938;44.794;-0.676;2023-05-16T00:33:04;5.10;;;4.22;;
21554;SDS011;10938;44.794;-0.676;2023-05-16T00:35:29;9.00;;;4.60;;
21554;SDS011;10938;44.794;-0.676;2023-05-16T00:37:55;8.43;;;4.33;;
21554;SDS011;10938;44.794;-0.676;2023-05-16T00:40:20;8.65;;;4.88;;
21554;SDS011;10938;44.794;-0.676;2023-05-16T00:42:45;9.30;;;4.60;;
21554;SDS011;10938;44.794;-0.676;2023-05-16T00:45:11;6.43;;;4.70;;
21554;SDS011;10938;44.794;-0.676;2023-05-16T00:47:36;7.18;;;4.97;;
21554;SDS011;10938;44.794;-0.676;2023-05-16T00:50:01;6.82;;;5.03;;
21554;SDS011;10938;44.794;-0.676;2023-05-16T00:52:28;5.60;;;4.78;;
21554;SDS011;10938;44.794;-0.676;2023-05-16T00:54:53;4.82;;;4.03;;
21554;SDS011;10938;44.794;-0.676;2023-05-16T00:57:19;7.32;;;4.20;;
21554;SDS011;10938;44.794;-0.676;2023-05-16T00:59:47;9.90;;;4.95;;
21554;SDS011;10938;44.794;-0.676;2023-05-16T01:02:14;6.53;;;4.22;;
21554;SDS011;10938;44.794;-0.676;2023-05-16T01:04:39;7.07;;;4.13;;
21554;SDS011;10938;44.794;-0.676;2023-05-16T01:07:05;5.07;;;3.97;;
21554;SDS011;10938;44.794;-0.676;2023-05-16T01:09:30;6.50;;;5.30;;
21554;SDS011;10938;44.794;-0.676;2023-05-16T01:21:52;7.80;;;5.27;;
21554;SDS011;10938;44.794;-0.676;2023-05-16T01:26:49;6.47;;;4.90;;
21554;SDS011;10938;44.794;-0.676;2023-05-16T01:29:15;10.05;;;5.55;;
21554;SDS011;10938;44.794;-0.676;2023-05-16T01:31:40;6.00;;;5.27;;
21554;SDS011;10938;44.794;-0.676;2023-05-16T01:34:06;6.05;;;5.20;;
21554;SDS011;10938;44.794;-0.676;2023-05-16T01:36:35;7.13;;;4.93;;
21554;SDS011;10938;44.794;-0.676;2023-05-16T01:39:09;6.50;;;5.45;;
21554;SDS011;10938;44.794;-0.676;2023-05-16T01:44:01;7.73;;;5.80;;
21554;SDS011;10938;44.794;-0.676;2023-05-16T01:46:30;6.55;;;5.47;;
21554;SDS011;10938;44.794;-0.676;2023-05-16T01:49:42;7.18;;;6.43;;
21554;SDS011;10938;44.794;-0.676;2023-05-16T01:52:07;7.13;;;5.68;;
21554;SDS011;10938;44.794;-0.676;2023-05-16T01:54:33;7.75;;;5.78;;
21554;SDS011;10938;44.794;-0.676;2023-05-16T01:57:03;5.82;;;5.20;;
21554;SDS011;10938;44.794;-0.676;2023-05-16T01:59:28;9.13;;;5.53;;
21554;SDS011;10938;44.794;-0.676;2023-05-16T02:01:57;8.48;;;5.03;;
21554;SDS011;10938;44.794;-0.676;2023-05-16T02:04:23;8.40;;;5.47;;
21554;SDS011;10938;44.794;-0.676;2023-05-16T02:06:49;5.93;;;5.15;;
21554;SDS011;10938;44.794;-0.676;2023-05-16T02:09:15;6.53;;;4.63;;
21554;SDS011;10938;44.794;-0.676;2023-05-16T02:11:40;7.32;;;4.95;;
21554;SDS011;10938;44.794;-0.676;2023-05-16T02:14:10;6.35;;;4.85;;
21554;SDS011;10938;44.794;-0.676;2023-05-16T02:16:36;6.53;;;4.03;;
21554;SDS011;10938;44.794;-0.676;2023-05-16T02:19:01;6.68;;;5.50;;
21554;SDS011;10938;44.794;-0.676;2023-05-16T02:21:26;8.73;;;5.32;;
21554;SDS011;10938;44.794;-0.676;2023-05-16T02:23:51;5.07;;;4.57;;
21554;SDS011;10938;44.794;-0.676;2023-05-16T02:26:17;5.38;;;4.00;;
21554;SDS011;10938;44.794;-0.676;2023-05-16T02:28:42;10.40;;;5.00;;
21554;SDS011;10938;44.794;-0.676;2023-05-16T02:31:08;5.03;;;4.53;;
21554;SDS011;10938;44.794;-0.676;2023-05-16T02:33:33;6.37;;;4.33;;
21554;SDS011;10938;44.794;-0.676;2023-05-16T02:35:58;7.00;;;4.30;;
21554;SDS011;10938;44.794;-0.676;2023-05-16T02:38:24;4.88;;;4.38;;
21554;SDS011;10938;44.794;-0.676;2023-05-16T02:40:49;4.88;;;4.38;;
21554;SDS011;10938;44.794;-0.676;2023-05-16T02:43:15;6.53;;;4.07;;
21554;SDS011;10938;44.794;-0.676;2023-05-16T02:45:40;7.80;;;3.83;;
21554;SDS011;10938;44.794;-0.676;2023-05-16T02:48:05;5.70;;;4.40;;
21554;SDS011;10938;44.794;-0.676;2023-05-16T02:50:31;5.32;;;4.40;;
21554;SDS011;10938;44.794;-0.676;2023-05-16T02:52:57;5.07;;;3.97;;
21554;SDS011;10938;44.794;-0.676;2023-05-16T02:55:24;5.38;;;4.07;;
21554;SDS011;10938;44.794;-0.676;2023-05-16T02:57:49;7.43;;;4.05;;
21554;SDS011;10938;44.794;-0.676;2023-05-16T03:00:15;5.70;;;4.32;;
21554;SDS011;10938;44.794;-0.676;2023-05-16T03:02:41;4.07;;;3.67;;
21554;SDS011;10938;44.794;-0.676;2023-05-16T03:05:07;6.95;;;4.05;;
21554;SDS011;10938;44.794;-0.676;2023-05-16T03:07:33;5.00;;;4.18;;
21554;SDS011;10938;44.794;-0.676;2023-05-16T03:09:58;7.27;;;4.30;;
21554;SDS011;10938;44.794;-0.676;2023-05-16T03:12:23;5.03;;;4.10;;
21554;SDS011;10938;44.794;-0.676;2023-05-16T03:14:49;4.93;;;4.07;;
21554;SDS011;10938;44.794;-0.676;2023-05-16T03:17:15;4.80;;;4.22;;
21554;SDS011;10938;44.794;-0.676;2023-05-16T03:19:40;5.35;;;4.00;;
21554;SDS011;10938;44.794;-0.676;2023-05-16T03:22:06;4.68;;;4.00;;
21554;SDS011;10938;44.794;-0.676;2023-05-16T03:24:31;6.97;;;4.20;;
21554;SDS011;10938;44.794;-0.676;2023-05-16T03:26:57;6.30;;;3.83;;
21554;SDS011;10938;44.794;-0.676;2023-05-16T03:29:24;4.97;;;3.53;;
21554;SDS011;10938;44.794;-0.676;2023-05-16T03:31:50;5.88;;;3.80;;
21554;SDS011;10938;44.794;-0.676;2023-05-16T03:34:15;5.07;;;3.33;;
21554;SDS011;10938;44.794;-0.676;2023-05-16T03:36:49;6.22;;;3.45;;
21554;SDS011;10938;44.794;-0.676;2023-05-16T03:39:15;6.22;;;3.70;;
21554;SDS011;10938;44.794;-0.676;2023-05-16T03:41:40;7.60;;;3.75;;
21554;SDS011;10938;44.794;-0.676;2023-05-16T03:44:06;4.57;;;3.13;;
21554;SDS011;10938;44.794;-0.676;2023-05-16T03:46:31;6.38;;;3.53;;
21554;SDS011;10938;44.794;-0.676;2023-05-16T03:48:56;3.78;;;3.22;;
21554;SDS011;10938;44.794;-0.676;2023-05-16T03:51:22;3.73;;;2.87;;
21554;SDS011;10938;44.794;-0.676;2023-05-16T03:53:47;6.53;;;3.10;;
21554;SDS011;10938;44.794;-0.676;2023-05-16T03:56:12;5.28;;;2.83;;
21554;SDS011;10938;44.794;-0.676;2023-05-16T03:58:38;7.47;;;3.40;;
21554;SDS011;10938;44.794;-0.676;2023-05-16T04:01:03;8.47;;;3.07;;
21554;SDS011;10938;44.794;-0.676;2023-05-16T04:03:28;4.73;;;2.70;;
21554;SDS011;10938;44.794;-0.676;2023-05-16T04:05:54;8.65;;;2.97;;
21554;SDS011;10938;44.794;-0.676;2023-05-16T04:08:20;5.78;;;3.20;;
21554;SDS011;10938;44.794;-0.676;2023-05-16T04:10:45;8.57;;;3.03;;
21554;SDS011;10938;44.794;-0.676;2023-05-16T04:13:11;5.90;;;2.67;;
21554;SDS011;10938;44.794;-0.676;2023-05-16T04:15:36;4.50;;;2.80;;
21554;SDS011;10938;44.794;-0.676;2023-05-16T04:18:01;4.03;;;2.40;;
21554;SDS011;10938;44.794;-0.676;2023-05-16T04:20:27;6.03;;;2.70;;
21554;SDS011;10938;44.794;-0.676;2023-05-16T04:22:52;4.55;;;2.63;;
21554;SDS011;10938;44.794;-0.676;2023-05-16T04:25:17;6.77;;;2.80;;
21554;SDS011;10938;44.794;-0.676;2023-05-16T04:27:43;3.92;;;2.67;;
21554;SDS011;10938;44.794;-0.676;2023-05-16T04:30:10;6.55;;;2.47;;
21554;SDS011;10938;44.794;-0.676;2023-05-16T04:32:36;8.30;;;2.40;;
21554;SDS011;10938;44.794;-0.676;2023-05-16T04:35:01;8.60;;;2.92;;
21554;SDS011;10938;44.794;-0.676;2023-05-16T04:37:27;6.28;;;2.40;;
21554;SDS011;10938;44.794;-0.676;2023-05-16T04:39:52;5.47;;;2.10;;
21554;SDS011;10938;44.794;-0.676;2023-05-16T04:42:18;4.10;;;2.10;;
21554;SDS011;10938;44.794;-0.676;2023-05-16T04:44:44;6.03;;;2.28;;
21554;SDS011;10938;44.794;-0.676;2023-05-16T04:47:12;4.13;;;2.28;;
21554;SDS011;10938;44.794;-0.676;2023-05-16T04:49:37;6.32;;;2.35;;
21554;SDS011;10938;44.794;-0.676;2023-05-16T04:52:02;4.82;;;2.20;;
21554;SDS011;10938;44.794;-0.676;2023-05-16T04:54:31;7.22;;;1.80;;
21554;SDS011;10938;44.794;-0.676;2023-05-16T04:56:57;4.43;;;2.33;;
21554;SDS011;10938;44.794;-0.676;2023-05-16T04:59:22;5.05;;;2.13;;
21554;SDS011;10938;44.794;-0.676;2023-05-16T05:01:50;5.10;;;2.10;;
21554;SDS011;10938;44.794;-0.676;2023-05-16T05:04:16;4.80;;;2.73;;
21554;SDS011;10938;44.794;-0.676;2023-05-16T05:06:41;4.93;;;1.90;;
21554;SDS011;10938;44.794;-0.676;2023-05-16T05:09:07;5.03;;;1.88;;
21554;SDS011;10938;44.794;-0.676;2023-05-16T05:11:33;7.75;;;2.33;;
21554;SDS011;10938;44.794;-0.676;2023-05-16T05:13:58;7.38;;;2.05;;
21554;SDS011;10938;44.794;-0.676;2023-05-16T05:16:23;4.75;;;1.92;;
21554;SDS011;10938;44.794;-0.676;2023-05-16T05:18:49;7.60;;;2.28;;
21554;SDS011;10938;44.794;-0.676;2023-05-16T05:21:14;5.97;;;2.13;;
21554;SDS011;10938;44.794;-0.676;2023-05-16T05:23:39;6.67;;;2.73;;
21554;SDS011;10938;44.794;-0.676;2023-05-16T05:26:05;6.40;;;1.92;;
21554;SDS011;10938;44.794;-0.676;2023-05-16T05:28:30;7.07;;;2.10;;
21554;SDS011;10938;44.794;-0.676;2023-05-16T05:30:55;7.63;;;2.30;;
21554;SDS011;10938;44.794;-0.676;2023-05-16T05:33:24;5.03;;;1.80;;
21554;SDS011;10938;44.794;-0.676;2023-05-16T05:35:50;5.40;;;2.50;;
21554;SDS011;10938;44.794;-0.676;2023-05-16T05:38:18;4.93;;;1.92;;
21554;SDS011;10938;44.794;-0.676;2023-05-16T05:40:44;3.70;;;1.90;;
21554;SDS011;10938;44.794;-0.676;2023-05-16T05:43:09;8.02;;;2.38;;
21554;SDS011;10938;44.794;-0.676;2023-05-16T05:45:35;5.15;;;1.90;;
21554;SDS011;10938;44.794;-0.676;2023-05-16T05:48:00;12.45;;;2.15;;
21554;SDS011;10938;44.794;-0.676;2023-05-16T05:50:25;6.73;;;2.33;;
21554;SDS011;10938;44.794;-0.676;2023-05-16T05:52:51;10.60;;;2.30;;
21554;SDS011;10938;44.794;-0.676;2023-05-16T05:55:16;5.30;;;2.53;;
21554;SDS011;10938;44.794;-0.676;2023-05-16T05:57:41;7.32;;;2.30;;
21554;SDS011;10938;44.794;-0.676;2023-05-16T06:00:07;7.03;;;2.30;;
21554;SDS011;10938;44.794;-0.676;2023-05-16T06:02:32;7.57;;;2.53;;
21554;SDS011;10938;44.794;-0.676;2023-05-16T06:04:57;6.90;;;2.50;;
21554;SDS011;10938;44.794;-0.676;2023-05-16T06:07:23;5.68;;;2.20;;
21554;SDS011;10938;44.794;-0.676;2023-05-16T06:09:48;7.28;;;2.25;;
21554;SDS011;10938;44.794;-0.676;2023-05-16T06:12:13;6.28;;;2.03;;
21554;SDS011;10938;44.794;-0.676;2023-05-16T06:14:39;6.13;;;2.00;;
21554;SDS011;10938;44.794;-0.676;2023-05-16T06:17:04;6.35;;;2.63;;
21554;SDS011;10938;44.794;-0.676;2023-05-16T06:19:29;8.02;;;2.10;;
21554;SDS011;10938;44.794;-0.676;2023-05-16T06:22:04;6.70;;;2.35;;
21554;SDS011;10938;44.794;-0.676;2023-05-16T06:24:29;9.02;;;2.47;;
21554;SDS011;10938;44.794;-0.676;2023-05-16T06:26:55;8.65;;;2.30;;
21554;SDS011;10938;44.794;-0.676;2023-05-16T06:29:20;7.97;;;2.55;;
21554;SDS011;10938;44.794;-0.676;2023-05-16T06:31:45;5.53;;;2.10;;
21554;SDS011;10938;44.794;-0.676;2023-05-16T06:34:13;7.10;;;2.45;;
21554;SDS011;10938;44.794;-0.676;2023-05-16T06:36:38;7.80;;;2.40;;
21554;SDS011;10938;44.794;-0.676;2023-05-16T06:39:03;6.93;;;2.57;;
21554;SDS011;10938;44.794;-0.676;2023-05-16T06:41:29;6.97;;;2.40;;
21554;SDS011;10938;44.794;-0.676;2023-05-16T06:43:54;6.23;;;2.40;;
21554;SDS011;10938;44.794;-0.676;2023-05-16T06:46:19;6.18;;;2.20;;
21554;SDS011;10938;44.794;-0.676;2023-05-16T06:48:45;7.75;;;2.65;;
21554;SDS011;10938;44.794;-0.676;2023-05-16T06:51:13;7.25;;;2.75;;
21554;SDS011;10938;44.794;-0.676;2023-05-16T06:53:38;5.72;;;2.30;;
21554;SDS011;10938;44.794;-0.676;2023-05-16T06:56:04;7.30;;;2.90;;
21554;SDS011;10938;44.794;-0.676;2023-05-16T06:58:29;6.18;;;2.20;;
21554;SDS011;10938;44.794;-0.676;2023-05-16T07:00:55;6.93;;;2.72;;
21554;SDS011;10938;44.794;-0.676;2023-05-16T07:03:20;6.17;;;2.33;;
21554;SDS011;10938;44.794;-0.676;2023-05-16T07:05:46;7.28;;;2.65;;
21554;SDS011;10938;44.794;-0.676;2023-05-16T07:08:11;4.80;;;2.03;;
21554;SDS011;10938;44.794;-0.676;2023-05-16T07:10:37;6.55;;;2.20;;
21554;SDS011;10938;44.794;-0.676;2023-05-16T07:13:02;7.35;;;2.40;;
21554;SDS011;10938;44.794;-0.676;2023-05-16T07:15:28;6.75;;;2.03;;
21554;SDS011;10938;44.794;-0.676;2023-05-16T07:17:57;6.40;;;2.40;;
21554;SDS011;10938;44.794;-0.676;2023-05-16T07:20:22;4.97;;;2.20;;
21554;SDS011;10938;44.794;-0.676;2023-05-16T07:22:47;6.57;;;2.58;;
21554;SDS011;10938;44.794;-0.676;2023-05-16T07:25:13;7.00;;;2.23;;
21554;SDS011;10938;44.794;-0.676;2023-05-16T07:27:40;8.57;;;2.42;;
21554;SDS011;10938;44.794;-0.676;2023-05-16T07:30:10;5.88;;;2.35;;
21554;SDS011;10938;44.794;-0.676;2023-05-16T07:32:35;5.93;;;2.25;;
21554;SDS011;10938;44.794;-0.676;2023-05-16T07:35:01;5.20;;;2.28;;
21554;SDS011;10938;44.794;-0.676;2023-05-16T07:37:26;5.77;;;2.10;;
21554;SDS011;10938;44.794;-0.676;2023-05-16T07:39:52;5.60;;;2.17;;
21554;SDS011;10938;44.794;-0.676;2023-05-16T07:42:17;6.40;;;2.43;;
21554;SDS011;10938;44.794;-0.676;2023-05-16T07:44:42;5.93;;;2.30;;
21554;SDS011;10938;44.794;-0.676;2023-05-16T07:47:08;7.65;;;2.55;;
21554;SDS011;10938;44.794;-0.676;2023-05-16T07:49:33;7.18;;;2.72;;
21554;SDS011;10938;44.794;-0.676;2023-05-16T07:51:58;6.47;;;2.43;;
21554;SDS011;10938;44.794;-0.676;2023-05-16T07:54:24;8.55;;;2.47;;
21554;SDS011;10938;44.794;-0.676;2023-05-16T07:56:49;7.87;;;2.77;;
21554;SDS011;10938;44.794;-0.676;2023-05-16T07:59:14;10.27;;;2.40;;
21554;SDS011;10938;44.794;-0.676;2023-05-16T08:01:40;8.07;;;2.40;;
21554;SDS011;10938;44.794;-0.676;2023-05-16T08:04:05;7.10;;;2.20;;
21554;SDS011;10938;44.794;-0.676;2023-05-16T08:06:31;9.55;;;2.55;;
21554;SDS011;10938;44.794;-0.676;2023-05-16T08:08:56;6.80;;;2.45;;
21554;SDS011;10938;44.794;-0.676;2023-05-16T08:11:22;8.32;;;2.30;;
21554;SDS011;10938;44.794;-0.676;2023-05-16T08:13:47;7.57;;;2.25;;
21554;SDS011;10938;44.794;-0.676;2023-05-16T08:16:13;5.63;;;2.17;;
21554;SDS011;10938;44.794;-0.676;2023-05-16T08:18:39;8.00;;;2.20;;
21554;SDS011;10938;44.794;-0.676;2023-05-16T08:21:04;5.72;;;1.80;;
21554;SDS011;10938;44.794;-0.676;2023-05-16T08:23:30;6.07;;;2.20;;
21554;SDS011;10938;44.794;-0.676;2023-05-16T08:25:55;5.57;;;1.90;;
21554;SDS011;10938;44.794;-0.676;2023-05-16T08:28:20;7.17;;;2.00;;
21554;SDS011;10938;44.794;-0.676;2023-05-16T08:30:45;3.97;;;1.97;;
21554;SDS011;10938;44.794;-0.676;2023-05-16T08:33:11;4.55;;;2.33;;
21554;SDS011;10938;44.794;-0.676;2023-05-16T08:35:40;5.53;;;1.97;;
21554;SDS011;10938;44.794;-0.676;2023-05-16T08:38:06;4.88;;;2.00;;
21554;SDS011;10938;44.794;-0.676;2023-05-16T08:40:31;4.20;;;2.37;;
21554;SDS011;10938;44.794;-0.676;2023-05-16T08:42:57;5.95;;;1.63;;
21554;SDS011;10938;44.794;-0.676;2023-05-16T08:45:22;6.47;;;2.22;;
21554;SDS011;10938;44.794;-0.676;2023-05-16T08:47:48;7.32;;;2.00;;
21554;SDS011;10938;44.794;-0.676;2023-05-16T08:50:14;4.88;;;1.90;;
21554;SDS011;10938;44.794;-0.676;2023-05-16T08:52:40;3.97;;;2.13;;
21554;SDS011;10938;44.794;-0.676;2023-05-16T08:55:06;5.70;;;1.80;;
21554;SDS011;10938;44.794;-0.676;2023-05-16T08:57:33;3.28;;;2.00;;
21554;SDS011;10938;44.794;-0.676;2023-05-16T08:59:59;5.90;;;2.10;;
21554;SDS011;10938;44.794;-0.676;2023-05-16T09:02:25;4.15;;;1.83;;
21554;SDS011;10938;44.794;-0.676;2023-05-16T09:04:51;3.35;;;1.60;;
21554;SDS011;10938;44.794;-0.676;2023-05-16T09:07:17;5.68;;;1.80;;
21554;SDS011;10938;44.794;-0.676;2023-05-16T09:09:42;4.63;;;1.60;;
21554;SDS011;10938;44.794;-0.676;2023-05-16T09:12:07;3.22;;;1.90;;
21554;SDS011;10938;44.794;-0.676;2023-05-16T09:14:33;4.45;;;2.00;;
21554;SDS011;10938;44.794;-0.676;2023-05-16T09:17:03;6.70;;;2.15;;
21554;SDS011;10938;44.794;-0.676;2023-05-16T09:19:39;2.75;;;1.40;;
21554;SDS011;10938;44.794;-0.676;2023-05-16T09:22:05;2.92;;;1.63;;
21554;SDS011;10938;44.794;-0.676;2023-05-16T09:24:31;3.42;;;1.80;;
21554;SDS011;10938;44.794;-0.676;2023-05-16T09:26:57;4.78;;;1.60;;
21554;SDS011;10938;44.794;-0.676;2023-05-16T09:29:22;3.83;;;1.63;;
21554;SDS011;10938;44.794;-0.676;2023-05-16T09:31:48;5.57;;;1.87;;
21554;SDS011;10938;44.794;-0.676;2023-05-16T09:34:13;6.55;;;1.77;;
21554;SDS011;10938;44.794;-0.676;2023-05-16T09:36:39;4.97;;;1.50;;
21554;SDS011;10938;44.794;-0.676;2023-05-16T09:39:07;3.88;;;1.40;;
21554;SDS011;10938;44.794;-0.676;2023-05-16T09:41:32;3.88;;;1.60;;
21554;SDS011;10938;44.794;-0.676;2023-05-16T09:43:59;5.35;;;1.67;;
21554;SDS011;10938;44.794;-0.676;2023-05-16T09:46:27;3.78;;;1.58;;
21554;SDS011;10938;44.794;-0.676;2023-05-16T09:48:52;3.90;;;1.47;;
21554;SDS011;10938;44.794;-0.676;2023-05-16T09:51:21;4.13;;;1.48;;
21554;SDS011;10938;44.794;-0.676;2023-05-16T09:53:47;3.40;;;1.17;;
21554;SDS011;10938;44.794;-0.676;2023-05-16T09:56:13;4.13;;;1.33;;
21554;SDS011;10938;44.794;-0.676;2023-05-16T09:58:40;4.45;;;1.45;;
21554;SDS011;10938;44.794;-0.676;2023-05-16T10:01:06;6.72;;;1.80;;
21554;SDS011;10938;44.794;-0.676;2023-05-16T10:03:35;6.22;;;1.60;;
21554;SDS011;10938;44.794;-0.676;2023-05-16T10:06:00;5.20;;;1.50;;
21554;SDS011;10938;44.794;-0.676;2023-05-16T10:08:26;3.22;;;1.48;;
21554;SDS011;10938;44.794;-0.676;2023-05-16T10:10:55;4.70;;;1.40;;
21554;SDS011;10938;44.794;-0.676;2023-05-16T10:13:30;6.55;;;1.58;;
21554;SDS011;10938;44.794;-0.676;2023-05-16T10:15:56;4.90;;;1.52;;
21554;SDS011;10938;44.794;-0.676;2023-05-16T10:18:22;5.72;;;1.65;;
21554;SDS011;10938;44.794;-0.676;2023-05-16T10:20:50;3.40;;;1.38;;
21554;SDS011;10938;44.794;-0.676;2023-05-16T10:23:17;4.05;;;1.42;;
21554;SDS011;10938;44.794;-0.676;2023-05-16T10:25:43;3.63;;;1.45;;
21554;SDS011;10938;44.794;-0.676;2023-05-16T10:28:09;5.65;;;1.52;;
21554;SDS011;10938;44.794;-0.676;2023-05-16T10:30:35;2.10;;;1.30;;
21554;SDS011;10938;44.794;-0.676;2023-05-16T10:33:01;6.28;;;1.50;;
21554;SDS011;10938;44.794;-0.676;2023-05-16T10:35:28;2.72;;;1.15;;
21554;SDS011;10938;44.794;-0.676;2023-05-16T10:37:53;5.40;;;1.60;;
21554;SDS011;10938;44.794;-0.676;2023-05-16T10:40:20;4.22;;;1.42;;
21554;SDS011;10938;44.794;-0.676;2023-05-16T10:42:59;2.70;;;1.30;;
21554;SDS011;10938;44.794;-0.676;2023-05-16T10:45:25;2.92;;;1.25;;
21554;SDS011;10938;44.794;-0.676;2023-05-16T10:47:58;7.53;;;1.85;;
21554;SDS011;10938;44.794;-0.676;2023-05-16T10:50:30;2.17;;;1.13;;
21554;SDS011;10938;44.794;-0.676;2023-05-16T10:53:09;3.72;;;1.52;;
21554;SDS011;10938;44.794;-0.676;2023-05-16T10:55:35;2.78;;;1.30;;
21554;SDS011;10938;44.794;-0.676;2023-05-16T10:58:02;9.05;;;1.55;;
21554;SDS011;10938;44.794;-0.676;2023-05-16T11:00:27;6.93;;;1.70;;
21554;SDS011;10938;44.794;-0.676;2023-05-16T11:02:54;2.78;;;1.30;;
21554;SDS011;10938;44.794;-0.676;2023-05-16T11:05:28;6.47;;;1.85;;
21554;SDS011;10938;44.794;-0.676;2023-05-16T11:08:12;8.25;;;1.60;;
21554;SDS011;10938;44.794;-0.676;2023-05-16T11:10:38;3.65;;;1.05;;
21554;SDS011;10938;44.794;-0.676;2023-05-16T11:13:06;2.83;;;1.20;;
21554;SDS011;10938;44.794;-0.676;2023-05-16T11:15:35;3.72;;;1.30;;
21554;SDS011;10938;44.794;-0.676;2023-05-16T11:18:07;5.30;;;1.65;;
21554;SDS011;10938;44.794;-0.676;2023-05-16T11:20:33;5.05;;;1.45;;
21554;SDS011;10938;44.794;-0.676;2023-05-16T11:25:41;3.97;;;1.35;;
21554;SDS011;10938;44.794;-0.676;2023-05-16T11:28:07;4.68;;;1.50;;
21554;SDS011;10938;44.794;-0.676;2023-05-16T11:30:32;6.88;;;1.60;;
21554;SDS011;10938;44.794;-0.676;2023-05-16T11:32:58;5.03;;;1.48;;
21554;SDS011;10938;44.794;-0.676;2023-05-16T11:35:23;4.32;;;1.50;;
21554;SDS011;10938;44.794;-0.676;2023-05-16T11:37:49;3.78;;;1.30;;
21554;SDS011;10938;44.794;-0.676;2023-05-16T11:40:15;3.67;;;1.38;;
21554;SDS011;10938;44.794;-0.676;2023-05-16T11:42:41;3.72;;;1.42;;
21554;SDS011;10938;44.794;-0.676;2023-05-16T11:45:11;4.07;;;1.20;;
21554;SDS011;10938;44.794;-0.676;2023-05-16T11:47:39;5.00;;;1.30;;
21554;SDS011;10938;44.794;-0.676;2023-05-16T11:50:11;5.22;;;1.33;;
21554;SDS011;10938;44.794;-0.676;2023-05-16T11:52:37;4.45;;;1.50;;
21554;SDS011;10938;44.794;-0.676;2023-05-16T11:55:03;4.07;;;1.10;;
21554;SDS011;10938;44.794;-0.676;2023-05-16T11:57:29;3.28;;;1.60;;
21554;SDS011;10938;44.794;-0.676;2023-05-16T11:59:54;6.38;;;1.80;;
21554;SDS011;10938;44.794;-0.676;2023-05-16T12:02:19;6.80;;;1.80;;
21554;SDS011;10938;44.794;-0.676;2023-05-16T12:04:45;4.72;;;1.40;;
21554;SDS011;10938;44.794;-0.676;2023-05-16T12:07:14;5.70;;;1.25;;
21554;SDS011;10938;44.794;-0.676;2023-05-16T12:09:40;3.47;;;1.13;;
21554;SDS011;10938;44.794;-0.676;2023-05-16T12:12:06;6.10;;;1.53;;
21554;SDS011;10938;44.794;-0.676;2023-05-16T12:14:31;4.72;;;1.42;;
21554;SDS011;10938;44.794;-0.676;2023-05-16T12:16:56;2.10;;;1.25;;
21554;SDS011;10938;44.794;-0.676;2023-05-16T12:19:22;4.70;;;1.33;;
21554;SDS011;10938;44.794;-0.676;2023-05-16T12:21:50;6.03;;;1.63;;
21554;SDS011;10938;44.794;-0.676;2023-05-16T12:24:16;6.35;;;1.40;;
21554;SDS011;10938;44.794;-0.676;2023-05-16T12:26:41;3.78;;;1.35;;
21554;SDS011;10938;44.794;-0.676;2023-05-16T12:29:07;9.85;;;1.70;;
21554;SDS011;10938;44.794;-0.676;2023-05-16T12:31:36;4.00;;;1.20;;
21554;SDS011;10938;44.794;-0.676;2023-05-16T12:34:02;4.25;;;1.30;;
21554;SDS011;10938;44.794;-0.676;2023-05-16T12:36:30;4.70;;;1.20;;
21554;SDS011;10938;44.794;-0.676;2023-05-16T12:38:58;3.80;;;1.30;;
21554;SDS011;10938;44.794;-0.676;2023-05-16T12:41:24;9.88;;;1.70;;
21554;SDS011;10938;44.794;-0.676;2023-05-16T12:43:49;5.95;;;1.70;;
21554;SDS011;10938;44.794;-0.676;2023-05-16T12:46:15;5.55;;;1.25;;
21554;SDS011;10938;44.794;-0.676;2023-05-16T12:48:41;4.78;;;1.70;;
21554;SDS011;10938;44.794;-0.676;2023-05-16T12:51:11;5.20;;;1.73;;
21554;SDS011;10938;44.794;-0.676;2023-05-16T12:53:47;4.40;;;1.35;;
21554;SDS011;10938;44.794;-0.676;2023-05-16T12:56:13;5.65;;;1.35;;
21554;SDS011;10938;44.794;-0.676;2023-05-16T12:58:40;4.43;;;1.52;;
21554;SDS011;10938;44.794;-0.676;2023-05-16T13:01:05;6.43;;;1.40;;
21554;SDS011;10938;44.794;-0.676;2023-05-16T13:03:31;5.63;;;1.42;;
21554;SDS011;10938;44.794;-0.676;2023-05-16T13:05:58;6.40;;;1.40;;
21554;SDS011;10938;44.794;-0.676;2023-05-16T13:08:24;5.07;;;1.60;;
21554;SDS011;10938;44.794;-0.676;2023-05-16T13:10:49;5.18;;;1.17;;
21554;SDS011;10938;44.794;-0.676;2023-05-16T13:13:15;7.13;;;1.70;;
21554;SDS011;10938;44.794;-0.676;2023-05-16T13:15:43;5.70;;;1.63;;
21554;SDS011;10938;44.794;-0.676;2023-05-16T13:18:08;6.03;;;1.25;;
21554;SDS011;10938;44.794;-0.676;2023-05-16T13:20:33;4.07;;;1.10;;
21554;SDS011;10938;44.794;-0.676;2023-05-16T13:22:59;5.05;;;1.33;;
21554;SDS011;10938;44.794;-0.676;2023-05-16T13:25:24;9.13;;;1.60;;
21554;SDS011;10938;44.794;-0.676;2023-05-16T13:27:49;4.30;;;1.47;;
21554;SDS011;10938;44.794;-0.676;2023-05-16T13:30:14;5.30;;;1.47;;
21554;SDS011;10938;44.794;-0.676;2023-05-16T13:32:40;4.43;;;1.60;;
21554;SDS011;10938;44.794;-0.676;2023-05-16T13:35:06;2.47;;;1.15;;
21554;SDS011;10938;44.794;-0.676;2023-05-16T13:37:32;9.52;;;1.50;;
21554;SDS011;10938;44.794;-0.676;2023-05-16T13:39:57;4.20;;;1.40;;
21554;SDS011;10938;44.794;-0.676;2023-05-16T13:42:23;3.38;;;1.15;;
21554;SDS011;10938;44.794;-0.676;2023-05-16T13:44:48;3.20;;;1.13;;
21554;SDS011;10938;44.794;-0.676;2023-05-16T13:47:14;3.63;;;1.38;;
21554;SDS011;10938;44.794;-0.676;2023-05-16T13:49:39;4.70;;;1.05;;
21554;SDS011;10938;44.794;-0.676;2023-05-16T13:52:05;9.45;;;1.38;;
21554;SDS011;10938;44.794;-0.676;2023-05-16T13:54:30;7.30;;;1.48;;
21554;SDS011;10938;44.794;-0.676;2023-05-16T13:56:56;5.20;;;1.25;;
21554;SDS011;10938;44.794;-0.676;2023-05-16T13:59:21;5.18;;;1.30;;
21554;SDS011;10938;44.794;-0.676;2023-05-16T14:01:47;4.25;;;1.10;;
21554;SDS011;10938;44.794;-0.676;2023-05-16T14:04:12;4.27;;;1.13;;
21554;SDS011;10938;44.794;-0.676;2023-05-16T14:06:37;1.97;;;0.90;;
21554;SDS011;10938;44.794;-0.676;2023-05-16T14:09:02;3.93;;;1.00;;
21554;SDS011;10938;44.794;-0.676;2023-05-16T14:11:28;3.28;;;1.33;;
21554;SDS011;10938;44.794;-0.676;2023-05-16T14:13:53;13.20;;;1.37;;
21554;SDS011;10938;44.794;-0.676;2023-05-16T14:16:18;3.00;;;1.17;;
21554;SDS011;10938;44.794;-0.676;2023-05-16T14:18:44;5.63;;;1.33;;
21554;SDS011;10938;44.794;-0.676;2023-05-16T14:21:09;3.83;;;1.05;;
21554;SDS011;10938;44.794;-0.676;2023-05-16T14:23:35;4.10;;;1.45;;
21554;SDS011;10938;44.794;-0.676;2023-05-16T14:26:00;3.80;;;1.33;;
21554;SDS011;10938;44.794;-0.676;2023-05-16T14:28:26;2.63;;;1.35;;
21554;SDS011;10938;44.794;-0.676;2023-05-16T14:30:51;2.97;;;1.20;;
21554;SDS011;10938;44.794;-0.676;2023-05-16T14:33:17;3.13;;;1.23;;
21554;SDS011;10938;44.794;-0.676;2023-05-16T14:35:42;4.20;;;1.30;;
21554;SDS011;10938;44.794;-0.676;2023-05-16T14:38:08;3.97;;;1.50;;
21554;SDS011;10938;44.794;-0.676;2023-05-16T14:40:34;3.92;;;1.20;;
21554;SDS011;10938;44.794;-0.676;2023-05-16T14:42:59;6.60;;;1.40;;
21554;SDS011;10938;44.794;-0.676;2023-05-16T14:45:27;3.15;;;1.30;;